Aiguafreda





Hora UTC 16:00
Temperatura 9.6 ºC
Suelo 15 cm 8.8 ºC
Humedad 77.2 %
Presión 1011.8 hPa
Pluja 0.0 mm
Velocidad viento 0.8 km/h
Dirección viento NNE
Radiación solar 12.4 W/m²

Datos diarios 2021-12-04



Hora UTC (invierno +1h; verano +2h)
Temperatura (ºC) Humedad (%) Presión (hPa) Velocidad viento (km/h) Precipitación (mm) Radiación solar (W/m²)
Hora UTC Aire Suelo 15 cm Humedad Presión Vel. Dir. Vel. Max Dir. Intent. máx 5 min. Rad. Sol.
00:05 2.6 1.3 86.1 1017.2 0.5 ENE 0.5 NE 0.0 0.3
00:10 2.7 1.3 85.5 1017.2 3.2 NNE 11.5 NNE 0.0 0.3
00:15 2.9 1.7 84.2 1017.1 5.5 NNE 14.2 NE 0.0 0.3
00:20 3.1 2.1 82.3 1017.1 5.1 ENE 16.9 ENE 0.0 0.2
00:25 3.2 2.2 81.0 1017.0 5.2 NE 11.5 NNE 0.0 0.3
00:30 3.2 2.1 80.9 1016.9 4.7 NE 11.5 NNE 0.0 0.3
00:35 3.2 2.3 80.9 1016.7 6.8 NE 14.2 NE 0.0 0.3
00:40 3.2 2.5 80.4 1016.7 7.2 ENE 16.9 NE 0.0 0.3
00:45 3.3 2.6 80.2 1016.6 4.8 NE 14.2 NE 0.0 0.3
00:50 3.3 2.8 80.0 1016.5 5.5 ENE 11.5 ENE 0.0 0.3
00:55 3.4 2.8 79.6 1016.4 5.2 NE 14.2 NE 0.0 0.3
01:00 3.4 2.8 79.7 1016.4 5.8 ENE 11.5 NE 0.0 0.3
01:05 3.4 2.8 79.7 1016.4 8.0 NE 16.9 NE 0.0 0.3
01:10 3.5 2.9 79.3 1016.5 7.2 NE 16.9 NE 0.0 0.3
01:15 3.4 2.8 79.1 1016.4 8.4 NE 14.2 ENE 0.0 0.3
01:20 3.3 2.7 79.4 1016.3 4.6 ENE 11.5 NNE 0.0 0.2
01:25 3.2 2.6 79.7 1016.3 3.6 ENE 8.8 NNE 0.0 0.3
01:30 3.2 2.5 80.1 1016.2 4.9 NE 14.2 NNE 0.0 0.3
01:35 3.1 2.4 80.6 1016.4 7.0 NE 14.2 NE 0.0 0.3
01:40 3.0 2.3 81.0 1016.5 3.1 E 11.5 ENE 0.0 0.2
01:45 3.0 2.3 80.9 1016.4 4.3 ENE 11.5 NNE 0.0 0.3
01:50 3.0 2.3 81.0 1016.3 7.4 NE 16.9 NE 0.0 0.3
01:55 3.0 2.3 80.8 1016.3 5.5 NE 11.5 NE 0.0 0.3
02:00 3.0 2.3 81.0 1016.4 4.3 NE 11.5 NNE 0.0 0.3
02:05 3.0 2.2 81.6 1016.3 5.5 NE 11.5 NE 0.0 0.2
02:10 3.0 2.3 81.7 1016.3 5.7 NNE 11.5 NE 0.0 0.3
02:15 3.0 2.3 81.6 1016.3 5.4 NE 14.2 NNE 0.0 0.3
02:20 2.9 2.1 81.9 1016.2 1.9 NE 8.8 N 0.0 0.3
02:25 2.9 2.1 82.7 1016.2 1.6 E 8.8 N 0.0 0.2
02:30 2.9 1.9 83.0 1016.1 1.1 SSE 6.1 ENE 0.0 0.3
02:35 2.8 1.8 83.4 1016.0 1.4 NNE 11.5 NNE 0.0 0.3
02:40 2.8 1.9 84.7 1016.0 3.1 NNE 8.8 NNE 0.0 0.2
02:45 2.9 2.1 85.0 1015.8 5.5 NE 11.5 NE 0.0 0.3
02:50 2.9 1.9 84.6 1015.8 2.2 NNE 8.8 NNE 0.0 0.2
02:55 2.9 2.0 84.8 1015.8 2.1 NNE 6.1 WNW 0.0 0.3
03:00 3.0 2.0 85.4 1015.7 2.2 SE 8.8 ESE 0.0 0.3
03:05 2.9 1.9 84.8 1015.7 1.3 SSE 6.1 SW 0.0 0.3
03:10 2.7 1.6 85.5 1015.6 2.2 W 6.1 NNE 0.0 0.2
03:15 2.4 1.4 86.0 1015.6 1.9 SE 6.1 SW 0.0 0.3
03:20 2.3 1.3 86.6 1015.7 0.9 S 6.1 S 0.0 0.3
03:25 2.2 1.2 87.3 1015.6 0.6 ESE 6.1 SE 0.0 0.3
03:30 2.1 1.0 87.8 1015.6 0.0 NNE 0.0 E 0.0 0.2
03:35 2.0 1.0 88.5 1015.6 1.0 W 6.1 W 0.0 0.2
03:40 2.0 0.9 89.0 1015.5 0.4 NE 3.4 NE 0.0 0.3
03:45 2.0 0.9 89.5 1015.4 0.3 SSE 3.4 WSW 0.0 0.2
03:50 2.0 0.9 90.0 1015.3 0.1 E 3.4 ENE 0.0 0.3
03:55 2.4 1.3 91.9 1015.3 1.8 ESE 11.5 NNW 0.0 0.3
04:00 2.7 1.3 91.4 1015.3 0.5 SSW 3.4 SE 0.0 0.3
04:05 2.5 1.1 90.4 1015.2 0.1 ESE 3.4 SW 0.0 0.3
04:10 2.4 0.9 90.5 1015.2 0.5 N 6.1 NNW 0.0 0.2
04:15 2.5 1.1 91.3 1015.2 0.6 NNW 8.8 NNW 0.0 0.3
04:20 2.8 1.5 91.9 1015.3 3.0 ENE 11.5 NNE 0.0 0.3
04:25 3.1 2.0 91.3 1015.3 5.1 ENE 14.2 NE 0.0 0.2
04:30 3.3 2.2 90.3 1015.3 5.7 ENE 14.2 NE 0.0 0.3
04:35 3.5 2.6 89.5 1015.3 5.9 ENE 16.9 E 0.0 0.3
04:40 3.7 2.7 88.9 1015.3 4.8 ENE 16.9 NE 0.0 0.3
04:45 3.7 2.6 89.0 1015.2 1.5 ENE 6.1 E 0.0 0.3
04:50 3.7 2.6 89.1 1015.0 1.0 WSW 6.1 W 0.0 0.3
04:55 3.6 2.4 89.3 1015.0 0.5 SW 6.1 SW 0.0 0.2
05:00 3.5 2.2 89.5 1015.0 1.2 SE 6.1 ENE 0.0 0.3
05:05 3.5 2.1 90.1 1015.0 2.3 WSW 8.8 SSW 0.0 0.3
05:10 3.5 2.2 90.6 1015.1 1.8 NNE 6.1 NE 0.0 0.3
05:15 3.6 2.5 91.0 1015.0 3.7 N 11.5 NNE 0.0 0.3
05:20 3.7 2.8 91.0 1015.1 1.7 NNE 8.8 NNW 0.0 0.3
05:25 3.8 2.8 90.7 1015.2 1.8 NNE 11.5 NNW 0.0 0.3
05:30 3.9 2.9 90.1 1015.3 5.0 NE 19.6 N 0.0 0.3
05:35 3.8 2.8 89.4 1015.3 4.5 NE 11.5 NE 0.0 0.3
05:40 3.7 2.9 89.1 1015.3 6.9 NE 14.2 E 0.0 0.3
05:45 3.7 2.9 89.2 1015.2 7.1 NE 16.9 NE 0.0 0.2
05:50 3.7 2.9 89.3 1015.1 5.8 NE 14.2 NE 0.0 0.3
05:55 3.7 2.9 89.2 1015.0 6.3 NE 14.2 ENE 0.0 0.3
06:00 3.7 2.9 89.2 1015.0 2.8 N 8.8 NNE 0.0 0.3
06:05 3.7 3.0 89.5 1015.1 2.8 N 11.5 N 0.0 0.3
06:10 3.8 2.8 89.7 1015.1 2.1 NNE 11.5 NE 0.0 0.2
06:15 3.9 3.0 90.2 1015.1 2.0 ENE 8.8 NE 0.0 0.3
06:20 4.0 3.0 90.4 1015.1 4.1 N 8.8 ENE 0.0 0.3
06:25 4.1 3.3 90.4 1015.0 4.6 NE 14.2 NE 0.0 0.3
06:30 4.1 3.3 89.6 1014.9 2.5 NE 11.5 ENE 0.0 0.3
06:35 4.1 3.3 89.3 1015.0 1.0 ENE 6.1 NE 0.0 0.4
06:40 4.1 3.4 89.2 1014.9 1.8 NE 8.8 NNE 0.0 0.6
06:45 4.2 3.4 89.2 1014.9 1.6 E 8.8 ENE 0.0 1.0
06:50 4.2 3.3 88.9 1014.7 2.1 NE 6.1 NE 0.0 1.7
06:55 4.1 3.4 88.7 1014.8 2.3 NE 8.8 ENE 0.0 2.7
07:00 4.3 3.7 88.7 1014.7 3.6 NE 8.8 NE 0.0 4.5
07:05 4.4 3.7 88.5 1014.6 4.3 NE 11.5 ENE 0.0 8.5
07:10 4.5 3.8 87.9 1014.7 4.9 NE 8.8 ENE 0.0 15.2
07:15 4.5 3.9 87.1 1014.8 4.1 NE 8.8 ENE 0.0 19.9
07:20 4.5 4.0 86.7 1014.7 2.0 ENE 8.8 E 0.0 23.6
07:25 4.5 4.1 86.7 1014.6 2.5 NNW 8.8 NE 0.0 31.9
07:30 4.6 4.2 86.5 1014.7 0.8 N 6.1 NE 0.0 37.5
07:35 4.6 4.3 86.9 1014.7 2.0 NE 8.8 E 0.0 45.0
07:40 4.8 4.5 87.3 1014.7 3.8 NE 11.5 NE 0.0 46.0
07:45 5.2 4.9 87.7 1014.7 5.1 NE 8.8 NE 0.0 53.5
07:50 5.6 5.3 87.1 1014.7 4.6 ENE 11.5 NE 0.0 62.5
07:55 5.9 5.7 86.4 1014.6 4.4 NE 8.8 ENE 0.0 95.3
08:00 6.7 6.3 85.2 1014.6 2.3 NE 8.8 ENE 0.0 167.5
08:05 7.8 6.9 81.3 1014.6 3.3 ENE 8.8 NE 0.0 164.5
08:10 8.4 7.4 78.0 1014.6 4.8 ENE 8.8 ENE 0.0 133.0
08:15 8.6 8.1 77.1 1014.6 3.6 ENE 11.5 NE 0.0 142.1
08:20 8.9 8.5 76.3 1014.7 5.2 NNE 16.9 ENE 0.0 91.1
08:25 8.9 9.1 76.2 1014.6 2.1 N 6.1 NNW 0.0 168.4
08:30 9.1 9.5 75.9 1014.5 4.8 NE 16.9 NE 0.0 117.6
08:35 9.3 10.1 75.8 1014.5 2.5 NE 11.5 ENE 0.0 185.5
08:40 9.5 10.6 75.0 1014.3 4.6 NNE 14.2 NNE 0.0 166.9
08:45 9.5 10.6 74.9 1014.4 4.4 N 11.5 N 0.0 157.4
08:50 9.5 10.9 75.1 1014.3 2.3 W 8.8 WSW 0.0 244.8
08:55 9.8 11.8 74.8 1014.2 4.2 SSW 11.5 NE 0.0 246.0
09:00 10.1 12.0 72.8 1014.1 5.2 NE 11.5 NNE 0.0 236.4
09:05 10.3 12.7 72.5 1014.2 2.7 NNE 6.1 NE 0.0 282.5
09:10 10.7 13.2 70.4 1014.0 4.8 N 11.5 E 0.0 260.9
09:15 10.8 13.3 70.4 1014.1 3.6 E 8.8 ESE 0.0 319.1
09:20 11.0 13.7 69.8 1014.2 5.1 ESE 11.5 ESE 0.0 302.7
09:25 11.5 14.2 67.5 1014.2 2.9 SE 8.8 E 0.0 315.2
09:30 11.7 13.9 66.5 1014.2 4.0 NNE 11.5 ENE 0.0 275.3
09:35 11.7 13.3 66.2 1014.2 4.6 N 11.5 NE 0.0 299.4
09:40 11.4 13.9 66.7 1014.1 8.3 NE 19.6 NE 0.0 352.0
09:45 11.5 14.0 67.0 1014.1 6.9 NE 14.2 NE 0.0 347.3
09:50 11.6 14.3 66.7 1014.3 7.6 ENE 22.3 NE 0.0 339.2
09:55 11.5 14.5 66.7 1014.0 4.8 NE 11.5 ENE 0.0 308.7
10:00 11.8 14.7 66.1 1014.0 4.0 E 8.8 ESE 0.0 308.0
10:05 11.8 15.1 65.2 1014.0 3.7 ENE 8.8 ENE 0.0 351.1
10:10 11.9 15.2 65.4 1013.8 4.4 NE 11.5 NE 0.0 398.2
10:15 12.1 15.8 65.1 1013.7 3.0 ENE 11.5 NNE 0.0 393.9
10:20 12.7 16.3 63.4 1013.6 5.1 ENE 14.2 ENE 0.0 393.5
10:25 13.1 16.9 61.7 1013.5 5.9 ENE 11.5 ESE 0.0 397.4
10:30 13.2 16.6 61.0 1013.4 6.1 ENE 11.5 SE 0.0 409.9
10:35 13.4 17.1 60.3 1013.5 3.3 ESE 8.8 SE 0.0 413.4
10:40 13.4 17.4 59.4 1013.3 3.5 NE 8.8 NNE 0.0 427.2
10:45 13.3 17.3 60.0 1013.2 5.4 SSW 16.9 SW 0.0 437.9
10:50 13.0 17.1 59.9 1013.1 6.4 NE 14.2 S 0.0 451.3
10:55 13.1 17.2 60.2 1012.9 4.8 SE 11.5 SSE 0.0 474.3
11:00 13.6 17.6 59.2 1012.9 5.7 S 11.5 SSE 0.0 492.4
11:05 13.8 18.0 57.3 1012.7 5.9 SSE 16.9 SSE 0.0 472.1
11:10 14.1 18.3 57.5 1012.6 7.2 E 14.2 ESE 0.0 444.0
11:15 14.6 18.9 56.3 1012.6 4.5 ENE 11.5 ESE 0.0 519.3
11:20 14.8 19.3 55.0 1012.4 7.3 NE 16.9 N 0.0 563.1
11:25 14.8 18.9 54.7 1012.4 7.7 NE 19.6 NNE 0.0 592.5
11:30 15.0 19.6 54.4 1012.2 6.0 SW 11.5 N 0.0 647.5
11:35 15.2 19.5 53.5 1012.1 8.9 ENE 16.9 SW 0.0 591.5
11:40 15.1 19.0 53.7 1012.0 10.2 E 35.8 NE 0.0 556.8
11:45 14.3 16.9 54.9 1012.1 14.8 ENE 35.8 N 0.0 410.1
11:50 13.6 16.5 57.1 1012.3 10.5 ENE 33.1 NE 0.0 426.6
11:55 13.3 15.3 58.1 1012.2 9.8 NNE 19.6 NE 0.0 245.9
12:00 12.8 14.8 59.6 1012.2 11.2 E 25.0 ESE 0.0 328.1
12:05 12.9 15.0 60.8 1012.0 4.8 ENE 16.9 WSW 0.0 301.7
12:10 13.2 15.3 59.8 1012.0 6.3 ENE 14.2 SSE 0.0 360.8
12:15 13.3 15.6 59.6 1011.7 6.1 N 19.6 NNE 0.0 449.1
12:20 13.8 17.1 58.7 1011.6 6.3 NE 14.2 N 0.0 596.0
12:25 14.4 17.6 56.3 1011.4 2.9 SE 8.8 N 0.0 587.1
12:30 14.6 17.1 55.6 1011.6 8.1 E 25.0 NE 0.0 566.8
12:35 14.8 16.8 55.9 1011.7 7.0 ENE 16.9 NNE 0.0 627.6
12:40 14.6 16.1 55.4 1011.5 7.9 NNE 22.3 NNE 0.0 543.4
12:45 14.3 15.7 56.9 1011.7 7.3 NE 19.6 ENE 0.0 392.3
12:50 14.1 15.6 57.5 1011.8 6.1 E 16.9 N 0.0 424.5
12:55 13.9 15.4 57.7 1012.0 5.6 NNE 14.2 NNE 0.0 271.0
13:00 13.6 14.9 58.8 1011.8 4.0 NNE 11.5 ENE 0.0 179.4
13:05 13.2 14.5 60.6 1011.7 3.3 E 8.8 NNE 0.0 156.5
13:10 12.8 14.0 61.8 1011.9 6.5 NE 16.9 ENE 0.0 117.6
13:15 12.6 13.6 62.4 1011.8 3.1 W 8.8 WSW 0.0 94.9
13:20 12.4 13.2 62.7 1011.9 4.5 NNE 16.9 NNE 0.0 83.7
13:25 12.1 12.8 63.9 1011.8 3.0 ENE 11.5 ENE 0.0 75.6
13:30 12.0 12.6 64.9 1011.8 3.0 NE 8.8 NNE 0.0 65.2
13:35 11.9 12.3 65.1 1011.8 2.5 ENE 8.8 ENE 0.0 57.7
13:40 11.8 12.1 65.8 1011.6 5.4 NNE 11.5 NNE 0.0 50.2
13:45 11.7 11.8 66.2 1011.6 2.5 NE 8.8 NE 0.0 40.8
13:50 11.6 11.6 66.7 1011.6 3.7 E 8.8 E 0.0 39.0
13:55 11.5 11.5 66.9 1011.6 6.1 E 16.9 NNE 0.0 42.2
14:00 11.5 11.4 67.1 1011.5 4.6 NE 16.9 NNE 0.0 43.6
14:05 11.5 11.3 66.7 1011.4 4.9 NNE 14.2 NE 0.0 44.9
14:10 11.4 11.2 67.5 1011.7 3.3 NNE 8.8 N 0.0 46.1
14:15 11.4 11.2 67.6 1011.5 1.8 NE 8.8 NE 0.0 51.0
14:20 11.3 11.1 68.6 1011.5 4.1 NE 11.5 NE 0.0 56.6
14:25 11.3 11.1 68.6 1011.6 4.8 NE 8.8 NE 0.0 57.1
14:30 11.3 11.1 68.6 1011.5 2.3 NE 8.8 NNE 0.0 45.9
14:35 11.3 11.0 68.0 1011.5 0.0 WNW 3.4 WNW 0.0 40.5
14:40 11.3 11.0 68.5 1011.4 0.6 SSE 3.4 SSW 0.0 38.6
14:45 11.2 10.8 68.8 1011.5 1.0 SE 6.1 SE 0.0 40.2
14:50 11.1 10.7 69.9 1011.4 0.0 NNE 0.0 WNW 0.0 43.2
14:55 11.0 10.6 71.0 1011.4 1.0 NE 6.1 NNE 0.0 43.6
15:00 10.9 10.5 72.1 1011.4 0.3 NNE 3.4 NE 0.0 43.0
15:05 10.8 10.4 72.7 1011.4 0.0 ENE 3.4 ENE 0.0 43.4
15:10 10.7 10.3 72.0 1011.4 0.4 ENE 3.4 NE 0.0 42.6
15:15 10.7 10.2 73.5 1011.1 0.0 NNE 0.0 ENE 0.0 37.7
15:20 10.6 10.1 73.5 1011.4 1.1 NW 6.1 NW 0.0 32.9
15:25 10.6 10.0 72.5 1011.4 1.7 NNW 6.1 WNW 0.0 28.8
15:30 10.6 9.9 72.6 1011.3 0.7 NNE 6.1 NE 0.0 26.6
15:35 10.5 9.8 73.0 1011.4 2.2 NW 6.1 WNW 0.0 24.8
15:40 10.3 9.7 73.5 1011.5 2.1 NNW 6.1 WNW 0.0 21.4
15:45 10.2 9.5 74.7 1011.6 2.9 N 8.8 NNE 0.0 18.0
15:50 9.9 9.3 75.5 1011.7 2.6 N 6.1 N 0.0 16.3
15:55 9.8 9.1 76.4 1011.7 2.8 NNE 8.8 NNE 0.0 13.8
16:00 9.6 8.8 77.2 1011.8 0.8 NNE 6.1 NNW 0.0 12.4
Máxima 15.2 19.6 91.9 1017.2 14.8 ENE 35.8 N 0.0 647.5
Mínima 2.0 0.9 53.5 1011.1
Total 0.0